sensor_id;sensor_type;location;lat;lon;timestamp;pressure;altitude;pressure_sealevel;temperature;humidity
9462;BME280;4769;42.660;23.262;2023-02-19T00:00:54;94256.41;;;8.87;61.97
9462;BME280;4769;42.660;23.262;2023-02-19T00:03:21;94270.09;;;8.66;63.20
9462;BME280;4769;42.660;23.262;2023-02-19T00:05:48;94263.59;;;8.68;62.95
9462;BME280;4769;42.660;23.262;2023-02-19T00:08:17;94268.50;;;8.65;63.90
9462;BME280;4769;42.660;23.262;2023-02-19T00:10:44;94257.03;;;8.59;63.79
9462;BME280;4769;42.660;23.262;2023-02-19T00:13:10;94254.84;;;8.56;63.83
9462;BME280;4769;42.660;23.262;2023-02-19T00:15:37;94264.38;;;8.57;64.04
9462;BME280;4769;42.660;23.262;2023-02-19T00:18:04;94238.38;;;8.38;64.77
9462;BME280;4769;42.660;23.262;2023-02-19T00:20:31;94253.22;;;8.44;65.08
9462;BME280;4769;42.660;23.262;2023-02-19T00:22:57;94238.53;;;8.54;64.28
9462;BME280;4769;42.660;23.262;2023-02-19T00:25:25;94241.06;;;8.61;64.23
9462;BME280;4769;42.660;23.262;2023-02-19T00:27:52;94239.09;;;8.56;63.95
9462;BME280;4769;42.660;23.262;2023-02-19T00:30:19;94229.84;;;8.65;64.10
9462;BME280;4769;42.660;23.262;2023-02-19T00:32:49;94236.16;;;8.76;63.63
9462;BME280;4769;42.660;23.262;2023-02-19T00:35:15;94224.38;;;8.67;63.62
9462;BME280;4769;42.660;23.262;2023-02-19T00:37:42;94219.13;;;8.67;63.59
9462;BME280;4769;42.660;23.262;2023-02-19T00:40:09;94232.13;;;8.62;63.89
9462;BME280;4769;42.660;23.262;2023-02-19T00:42:37;94231.09;;;8.63;63.81
9462;BME280;4769;42.660;23.262;2023-02-19T00:45:05;94235.22;;;8.59;64.02
9462;BME280;4769;42.660;23.262;2023-02-19T00:47:31;94232.03;;;8.68;63.82
9462;BME280;4769;42.660;23.262;2023-02-19T00:49:58;94230.53;;;8.61;63.97
9462;BME280;4769;42.660;23.262;2023-02-19T00:52:25;94208.25;;;8.52;63.49
9462;BME280;4769;42.660;23.262;2023-02-19T00:54:52;94208.81;;;8.54;63.63
9462;BME280;4769;42.660;23.262;2023-02-19T00:57:18;94207.13;;;8.71;63.20
9462;BME280;4769;42.660;23.262;2023-02-19T00:59:46;94196.75;;;8.76;63.23
9462;BME280;4769;42.660;23.262;2023-02-19T01:02:14;94185.19;;;8.88;62.11
9462;BME280;4769;42.660;23.262;2023-02-19T01:04:41;94199.94;;;9.12;60.55
9462;BME280;4769;42.660;23.262;2023-02-19T01:07:08;94182.13;;;9.03;60.91
9462;BME280;4769;42.660;23.262;2023-02-19T01:09:35;94184.75;;;9.14;60.85
9462;BME280;4769;42.660;23.262;2023-02-19T01:12:02;94176.16;;;9.07;61.50
9462;BME280;4769;42.660;23.262;2023-02-19T01:14:29;94181.91;;;8.93;62.35
9462;BME280;4769;42.660;23.262;2023-02-19T01:16:57;94192.97;;;8.72;62.92
9462;BME280;4769;42.660;23.262;2023-02-19T01:19:24;94191.50;;;8.35;64.58
9462;BME280;4769;42.660;23.262;2023-02-19T01:21:51;94201.94;;;8.53;64.00
9462;BME280;4769;42.660;23.262;2023-02-19T01:24:18;94212.84;;;8.68;63.64
9462;BME280;4769;42.660;23.262;2023-02-19T01:26:44;94202.78;;;8.65;63.66
9462;BME280;4769;42.660;23.262;2023-02-19T01:29:11;94217.09;;;8.69;63.63
9462;BME280;4769;42.660;23.262;2023-02-19T01:31:39;94221.38;;;8.52;64.55
9462;BME280;4769;42.660;23.262;2023-02-19T01:34:10;94207.81;;;8.55;63.85
9462;BME280;4769;42.660;23.262;2023-02-19T01:36:37;94227.06;;;8.19;64.99
9462;BME280;4769;42.660;23.262;2023-02-19T01:39:05;94225.53;;;8.12;65.64
9462;BME280;4769;42.660;23.262;2023-02-19T01:41:34;94245.63;;;8.06;65.90
9462;BME280;4769;42.660;23.262;2023-02-19T01:44:04;94243.44;;;8.21;66.04
9462;BME280;4769;42.660;23.262;2023-02-19T01:46:33;94247.72;;;8.34;65.19
9462;BME280;4769;42.660;23.262;2023-02-19T01:49:04;94238.88;;;8.28;64.77
9462;BME280;4769;42.660;23.262;2023-02-19T01:51:34;94256.03;;;8.31;65.02
9462;BME280;4769;42.660;23.262;2023-02-19T01:54:04;94267.03;;;8.39;64.45
9462;BME280;4769;42.660;23.262;2023-02-19T01:56:33;94245.56;;;8.13;65.25
9462;BME280;4769;42.660;23.262;2023-02-19T01:59:03;94249.91;;;8.19;64.97
9462;BME280;4769;42.660;23.262;2023-02-19T02:01:31;94250.78;;;8.31;64.90
9462;BME280;4769;42.660;23.262;2023-02-19T02:03:58;94227.94;;;8.31;64.15
9462;BME280;4769;42.660;23.262;2023-02-19T02:06:29;94232.41;;;8.42;63.79
9462;BME280;4769;42.660;23.262;2023-02-19T02:08:59;94221.44;;;8.34;64.70
9462;BME280;4769;42.660;23.262;2023-02-19T02:11:45;94228.25;;;8.05;65.50
9462;BME280;4769;42.660;23.262;2023-02-19T02:14:13;94233.75;;;8.04;65.93
9462;BME280;4769;42.660;23.262;2023-02-19T02:16:46;94222.34;;;8.10;66.05
9462;BME280;4769;42.660;23.262;2023-02-19T02:19:29;94223.25;;;8.33;63.27
9462;BME280;4769;42.660;23.262;2023-02-19T02:22:02;94227.66;;;8.51;63.59
9462;BME280;4769;42.660;23.262;2023-02-19T02:27:50;94227.53;;;8.16;65.66
9462;BME280;4769;42.660;23.262;2023-02-19T02:30:26;94233.56;;;7.87;66.96
9462;BME280;4769;42.660;23.262;2023-02-19T02:32:59;94243.72;;;7.95;66.12
9462;BME280;4769;42.660;23.262;2023-02-19T02:35:29;94239.97;;;7.73;67.52
9462;BME280;4769;42.660;23.262;2023-02-19T02:38:00;94255.63;;;7.80;67.28
9462;BME280;4769;42.660;23.262;2023-02-19T02:40:28;94247.47;;;7.88;66.96
9462;BME280;4769;42.660;23.262;2023-02-19T02:42:56;94263.22;;;7.88;66.67
9462;BME280;4769;42.660;23.262;2023-02-19T02:45:28;94251.34;;;7.67;67.52
9462;BME280;4769;42.660;23.262;2023-02-19T02:48:16;94260.50;;;7.58;68.04
9462;BME280;4769;42.660;23.262;2023-02-19T02:50:46;94263.75;;;7.78;66.92
9462;BME280;4769;42.660;23.262;2023-02-19T02:53:18;94263.34;;;7.93;66.33
9462;BME280;4769;42.660;23.262;2023-02-19T02:56:04;94252.34;;;8.02;66.06
9462;BME280;4769;42.660;23.262;2023-02-19T02:58:33;94252.44;;;7.96;66.26
9462;BME280;4769;42.660;23.262;2023-02-19T03:01:04;94251.44;;;8.08;65.70
9462;BME280;4769;42.660;23.262;2023-02-19T03:04:00;94244.81;;;8.24;64.40
9462;BME280;4769;42.660;23.262;2023-02-19T03:06:30;94248.91;;;9.02;60.25
9462;BME280;4769;42.660;23.262;2023-02-19T03:09:03;94257.38;;;8.63;62.61
9462;BME280;4769;42.660;23.262;2023-02-19T03:11:34;94253.44;;;8.42;63.60
9462;BME280;4769;42.660;23.262;2023-02-19T03:14:22;94260.28;;;8.32;64.27
9462;BME280;4769;42.660;23.262;2023-02-19T03:17:14;94253.78;;;8.34;64.31
9462;BME280;4769;42.660;23.262;2023-02-19T03:20:04;94255.47;;;8.29;63.78
9462;BME280;4769;42.660;23.262;2023-02-19T03:22:35;94247.63;;;8.81;60.69
9462;BME280;4769;42.660;23.262;2023-02-19T03:25:07;94253.94;;;9.26;59.43
9462;BME280;4769;42.660;23.262;2023-02-19T03:27:54;94263.06;;;9.01;60.08
9462;BME280;4769;42.660;23.262;2023-02-19T03:30:26;94278.63;;;9.83;56.27
9462;BME280;4769;42.660;23.262;2023-02-19T03:32:58;94283.16;;;10.78;52.29
9462;BME280;4769;42.660;23.262;2023-02-19T03:35:29;94275.41;;;11.32;50.15
9462;BME280;4769;42.660;23.262;2023-02-19T03:38:01;94289.38;;;11.66;48.92
9462;BME280;4769;42.660;23.262;2023-02-19T03:40:33;94285.56;;;11.73;48.42
9462;BME280;4769;42.660;23.262;2023-02-19T03:43:12;94276.91;;;11.99;47.66
9462;BME280;4769;42.660;23.262;2023-02-19T03:45:46;94281.22;;;12.05;47.06
9462;BME280;4769;42.660;23.262;2023-02-19T03:48:25;94287.81;;;12.46;45.57
9462;BME280;4769;42.660;23.262;2023-02-19T03:51:01;94271.19;;;12.50;45.62
9462;BME280;4769;42.660;23.262;2023-02-19T03:53:33;94284.41;;;12.50;45.63
9462;BME280;4769;42.660;23.262;2023-02-19T03:56:08;94285.53;;;12.11;46.81
9462;BME280;4769;42.660;23.262;2023-02-19T03:58:42;94288.78;;;12.18;46.59
9462;BME280;4769;42.660;23.262;2023-02-19T04:01:16;94291.22;;;11.82;47.53
9462;BME280;4769;42.660;23.262;2023-02-19T04:03:50;94297.56;;;11.64;48.13
9462;BME280;4769;42.660;23.262;2023-02-19T04:06:24;94289.50;;;11.92;47.69
9462;BME280;4769;42.660;23.262;2023-02-19T04:08:54;94301.63;;;12.10;46.67
9462;BME280;4769;42.660;23.262;2023-02-19T04:11:22;94299.91;;;11.82;47.99
9462;BME280;4769;42.660;23.262;2023-02-19T04:13:54;94302.84;;;11.48;49.60
9462;BME280;4769;42.660;23.262;2023-02-19T04:16:26;94313.25;;;10.93;51.89
9462;BME280;4769;42.660;23.262;2023-02-19T04:18:58;94318.66;;;10.59;53.50
9462;BME280;4769;42.660;23.262;2023-02-19T04:21:28;94315.38;;;10.52;52.75
9462;BME280;4769;42.660;23.262;2023-02-19T04:23:58;94319.41;;;10.99;51.19
9462;BME280;4769;42.660;23.262;2023-02-19T04:26:26;94335.16;;;10.94;50.92
9462;BME280;4769;42.660;23.262;2023-02-19T04:28:53;94322.25;;;11.42;49.44
9462;BME280;4769;42.660;23.262;2023-02-19T04:31:21;94295.38;;;11.28;49.16
9462;BME280;4769;42.660;23.262;2023-02-19T04:33:48;94315.00;;;11.32;49.37
9462;BME280;4769;42.660;23.262;2023-02-19T04:36:16;94307.00;;;11.44;49.30
9462;BME280;4769;42.660;23.262;2023-02-19T04:38:43;94322.78;;;11.72;48.91
9462;BME280;4769;42.660;23.262;2023-02-19T04:41:10;94318.78;;;11.69;48.89
9462;BME280;4769;42.660;23.262;2023-02-19T04:43:37;94315.97;;;11.76;48.66
9462;BME280;4769;42.660;23.262;2023-02-19T04:46:04;94323.06;;;11.59;49.33
9462;BME280;4769;42.660;23.262;2023-02-19T04:48:30;94336.72;;;11.39;50.19
9462;BME280;4769;42.660;23.262;2023-02-19T04:50:57;94325.06;;;11.68;50.27
9462;BME280;4769;42.660;23.262;2023-02-19T04:53:25;94334.84;;;11.51;49.25
9462;BME280;4769;42.660;23.262;2023-02-19T04:55:52;94331.72;;;11.87;49.19
9462;BME280;4769;42.660;23.262;2023-02-19T04:58:19;94334.50;;;11.97;48.56
9462;BME280;4769;42.660;23.262;2023-02-19T05:00:50;94334.22;;;11.99;49.32
9462;BME280;4769;42.660;23.262;2023-02-19T05:03:17;94338.25;;;12.01;48.37
9462;BME280;4769;42.660;23.262;2023-02-19T05:05:44;94342.75;;;12.01;48.71
9462;BME280;4769;42.660;23.262;2023-02-19T05:08:10;94344.25;;;11.97;49.62
9462;BME280;4769;42.660;23.262;2023-02-19T05:10:38;94336.88;;;11.99;49.48
9462;BME280;4769;42.660;23.262;2023-02-19T05:13:05;94360.03;;;12.08;48.69
9462;BME280;4769;42.660;23.262;2023-02-19T05:15:32;94349.81;;;11.79;50.06
9462;BME280;4769;42.660;23.262;2023-02-19T05:17:59;94333.34;;;11.72;50.74
9462;BME280;4769;42.660;23.262;2023-02-19T05:20:26;94345.16;;;11.86;50.97
9462;BME280;4769;42.660;23.262;2023-02-19T05:22:52;94361.94;;;11.96;50.48
9462;BME280;4769;42.660;23.262;2023-02-19T05:25:19;94361.88;;;11.91;50.91
9462;BME280;4769;42.660;23.262;2023-02-19T05:27:48;94348.84;;;11.85;50.59
9462;BME280;4769;42.660;23.262;2023-02-19T05:30:14;94360.78;;;11.87;50.47
9462;BME280;4769;42.660;23.262;2023-02-19T05:32:41;94359.41;;;11.68;51.03
9462;BME280;4769;42.660;23.262;2023-02-19T05:35:08;94357.41;;;11.75;51.20
9462;BME280;4769;42.660;23.262;2023-02-19T05:37:35;94355.91;;;11.63;51.45
9462;BME280;4769;42.660;23.262;2023-02-19T05:40:03;94363.25;;;11.61;51.44
9462;BME280;4769;42.660;23.262;2023-02-19T05:42:30;94345.19;;;11.69;51.48
9462;BME280;4769;42.660;23.262;2023-02-19T05:44:58;94358.13;;;11.71;51.47
9462;BME280;4769;42.660;23.262;2023-02-19T05:47:25;94357.97;;;11.77;51.52
9462;BME280;4769;42.660;23.262;2023-02-19T05:49:51;94369.34;;;11.78;51.42
9462;BME280;4769;42.660;23.262;2023-02-19T05:52:18;94368.44;;;11.89;51.40
9462;BME280;4769;42.660;23.262;2023-02-19T05:54:45;94362.31;;;11.67;52.57
9462;BME280;4769;42.660;23.262;2023-02-19T05:57:14;94377.59;;;11.81;52.08
9462;BME280;4769;42.660;23.262;2023-02-19T05:59:43;94378.09;;;11.62;53.27
9462;BME280;4769;42.660;23.262;2023-02-19T06:02:11;94373.59;;;11.79;53.40
9462;BME280;4769;42.660;23.262;2023-02-19T06:04:38;94378.16;;;11.83;53.00
9462;BME280;4769;42.660;23.262;2023-02-19T06:07:05;94386.56;;;11.80;52.69
9462;BME280;4769;42.660;23.262;2023-02-19T06:09:32;94396.06;;;11.65;53.22
9462;BME280;4769;42.660;23.262;2023-02-19T06:11:58;94402.09;;;11.32;54.20
9462;BME280;4769;42.660;23.262;2023-02-19T06:14:25;94407.81;;;11.13;54.18
9462;BME280;4769;42.660;23.262;2023-02-19T06:16:52;94404.88;;;10.98;54.54
9462;BME280;4769;42.660;23.262;2023-02-19T06:19:20;94399.94;;;11.01;54.90
9462;BME280;4769;42.660;23.262;2023-02-19T06:21:48;94400.97;;;11.28;54.14
9462;BME280;4769;42.660;23.262;2023-02-19T06:24:15;94398.56;;;11.27;53.82
9462;BME280;4769;42.660;23.262;2023-02-19T06:26:42;94408.34;;;11.15;53.75
9462;BME280;4769;42.660;23.262;2023-02-19T06:29:09;94402.94;;;11.21;53.57
9462;BME280;4769;42.660;23.262;2023-02-19T06:31:35;94404.78;;;11.21;53.63
9462;BME280;4769;42.660;23.262;2023-02-19T06:34:06;94403.09;;;11.15;54.10
9462;BME280;4769;42.660;23.262;2023-02-19T06:36:34;94396.94;;;11.09;53.66
9462;BME280;4769;42.660;23.262;2023-02-19T06:39:02;94408.06;;;11.28;53.25
9462;BME280;4769;42.660;23.262;2023-02-19T06:41:29;94401.81;;;11.17;53.27
9462;BME280;4769;42.660;23.262;2023-02-19T06:43:56;94408.47;;;10.92;54.32
9462;BME280;4769;42.660;23.262;2023-02-19T06:46:23;94401.03;;;10.89;54.16
9462;BME280;4769;42.660;23.262;2023-02-19T06:48:50;94401.34;;;10.92;54.08
9462;BME280;4769;42.660;23.262;2023-02-19T06:51:18;94406.75;;;10.86;54.61
9462;BME280;4769;42.660;23.262;2023-02-19T06:53:49;94382.38;;;10.79;54.71
9462;BME280;4769;42.660;23.262;2023-02-19T06:56:22;94392.88;;;10.90;54.79
9462;BME280;4769;42.660;23.262;2023-02-19T06:58:49;94398.94;;;11.19;53.89
9462;BME280;4769;42.660;23.262;2023-02-19T07:01:16;94397.44;;;11.23;53.10
9462;BME280;4769;42.660;23.262;2023-02-19T07:03:43;94412.84;;;11.42;52.55
9462;BME280;4769;42.660;23.262;2023-02-19T07:06:09;94407.06;;;11.45;52.47
9462;BME280;4769;42.660;23.262;2023-02-19T07:08:36;94417.69;;;11.62;52.66
9462;BME280;4769;42.660;23.262;2023-02-19T07:11:04;94407.56;;;11.59;52.25
9462;BME280;4769;42.660;23.262;2023-02-19T07:13:32;94413.59;;;11.71;52.17
9462;BME280;4769;42.660;23.262;2023-02-19T07:16:00;94404.97;;;11.92;51.53
9462;BME280;4769;42.660;23.262;2023-02-19T07:18:29;94395.13;;;11.87;51.41
9462;BME280;4769;42.660;23.262;2023-02-19T07:21:01;94403.44;;;11.96;51.78
9462;BME280;4769;42.660;23.262;2023-02-19T07:23:28;94403.34;;;12.07;51.42
9462;BME280;4769;42.660;23.262;2023-02-19T07:25:54;94408.63;;;12.24;50.68
9462;BME280;4769;42.660;23.262;2023-02-19T07:28:22;94399.91;;;12.45;50.11
9462;BME280;4769;42.660;23.262;2023-02-19T07:30:49;94390.59;;;12.80;48.54
9462;BME280;4769;42.660;23.262;2023-02-19T07:33:16;94390.78;;;12.74;49.16
9462;BME280;4769;42.660;23.262;2023-02-19T07:35:44;94386.72;;;13.09;47.85
9462;BME280;4769;42.660;23.262;2023-02-19T07:38:14;94375.81;;;13.06;47.20
9462;BME280;4769;42.660;23.262;2023-02-19T07:40:49;94391.81;;;13.16;47.27
9462;BME280;4769;42.660;23.262;2023-02-19T07:43:16;94380.81;;;13.02;46.90
9462;BME280;4769;42.660;23.262;2023-02-19T07:45:45;94392.19;;;13.03;47.29
9462;BME280;4769;42.660;23.262;2023-02-19T07:48:11;94384.66;;;13.16;47.08
9462;BME280;4769;42.660;23.262;2023-02-19T07:50:38;94378.16;;;13.29;47.26
9462;BME280;4769;42.660;23.262;2023-02-19T07:53:05;94374.13;;;13.48;46.65
9462;BME280;4769;42.660;23.262;2023-02-19T07:55:32;94380.97;;;13.44;46.81
9462;BME280;4769;42.660;23.262;2023-02-19T07:58:01;94372.47;;;13.42;46.92
9462;BME280;4769;42.660;23.262;2023-02-19T08:00:28;94363.91;;;13.61;46.62
9462;BME280;4769;42.660;23.262;2023-02-19T08:02:57;94375.13;;;13.73;46.76
9462;BME280;4769;42.660;23.262;2023-02-19T08:05:25;94376.03;;;13.89;45.43
9462;BME280;4769;42.660;23.262;2023-02-19T08:07:53;94364.97;;;13.97;45.56
9462;BME280;4769;42.660;23.262;2023-02-19T08:10:19;94369.03;;;14.09;44.72
9462;BME280;4769;42.660;23.262;2023-02-19T08:13:03;94380.16;;;14.07;44.86
9462;BME280;4769;42.660;23.262;2023-02-19T08:15:48;94364.47;;;14.00;45.91
9462;BME280;4769;42.660;23.262;2023-02-19T08:29:40;94395.25;;;14.43;44.17
9462;BME280;4769;42.660;23.262;2023-02-19T08:32:06;94370.84;;;14.36;44.35
9462;BME280;4769;42.660;23.262;2023-02-19T08:34:33;94367.13;;;14.37;44.24
9462;BME280;4769;42.660;23.262;2023-02-19T08:37:00;94375.16;;;14.52;44.08
9462;BME280;4769;42.660;23.262;2023-02-19T08:39:27;94373.16;;;14.74;44.02
9462;BME280;4769;42.660;23.262;2023-02-19T08:41:53;94372.28;;;14.58;43.35
9462;BME280;4769;42.660;23.262;2023-02-19T08:44:20;94369.84;;;14.52;43.68
9462;BME280;4769;42.660;23.262;2023-02-19T08:46:48;94379.72;;;14.56;43.70
9462;BME280;4769;42.660;23.262;2023-02-19T08:49:15;94368.97;;;14.36;43.79
9462;BME280;4769;42.660;23.262;2023-02-19T08:51:41;94367.16;;;14.42;43.69
9462;BME280;4769;42.660;23.262;2023-02-19T08:54:08;94365.78;;;14.34;45.44
9462;BME280;4769;42.660;23.262;2023-02-19T08:56:35;94372.69;;;14.35;45.53
9462;BME280;4769;42.660;23.262;2023-02-19T08:59:02;94378.78;;;14.36;46.28
9462;BME280;4769;42.660;23.262;2023-02-19T09:01:28;94358.84;;;14.23;46.34
9462;BME280;4769;42.660;23.262;2023-02-19T09:03:56;94356.22;;;14.33;46.40
9462;BME280;4769;42.660;23.262;2023-02-19T09:06:23;94358.38;;;14.41;46.55
9462;BME280;4769;42.660;23.262;2023-02-19T09:08:50;94358.38;;;14.41;46.54
9462;BME280;4769;42.660;23.262;2023-02-19T09:11:17;94342.56;;;14.56;46.08
9462;BME280;4769;42.660;23.262;2023-02-19T09:13:43;94341.03;;;14.75;46.00
9462;BME280;4769;42.660;23.262;2023-02-19T09:16:10;94339.53;;;14.99;45.32
9462;BME280;4769;42.660;23.262;2023-02-19T09:18:37;94339.03;;;15.07;44.77
9462;BME280;4769;42.660;23.262;2023-02-19T09:21:06;94334.31;;;15.34;44.56
9462;BME280;4769;42.660;23.262;2023-02-19T09:23:33;94335.03;;;15.10;44.48
9462;BME280;4769;42.660;23.262;2023-02-19T09:26:01;94340.38;;;15.15;45.00
9462;BME280;4769;42.660;23.262;2023-02-19T09:28:31;94326.88;;;15.46;44.39
9462;BME280;4769;42.660;23.262;2023-02-19T09:31:02;94333.00;;;15.42;43.75
9462;BME280;4769;42.660;23.262;2023-02-19T09:33:29;94347.63;;;15.59;43.17
9462;BME280;4769;42.660;23.262;2023-02-19T09:35:57;94329.03;;;15.69;42.90
9462;BME280;4769;42.660;23.262;2023-02-19T09:38:25;94338.59;;;15.95;42.28
9462;BME280;4769;42.660;23.262;2023-02-19T09:40:53;94328.72;;;16.01;41.38
9462;BME280;4769;42.660;23.262;2023-02-19T09:43:23;94331.38;;;16.16;41.16
9462;BME280;4769;42.660;23.262;2023-02-19T09:46:00;94319.16;;;16.05;41.28
9462;BME280;4769;42.660;23.262;2023-02-19T09:48:28;94314.91;;;15.99;40.67
9462;BME280;4769;42.660;23.262;2023-02-19T09:50:56;94324.75;;;15.88;40.89
9462;BME280;4769;42.660;23.262;2023-02-19T09:53:30;94317.03;;;16.17;40.74
9462;BME280;4769;42.660;23.262;2023-02-19T09:56:00;94305.53;;;16.26;40.29
9462;BME280;4769;42.660;23.262;2023-02-19T09:58:30;94297.00;;;16.44;39.74
9462;BME280;4769;42.660;23.262;2023-02-19T10:01:00;94285.53;;;16.39;39.92
9462;BME280;4769;42.660;23.262;2023-02-19T10:03:29;94288.50;;;16.32;39.96
9462;BME280;4769;42.660;23.262;2023-02-19T10:06:00;94291.16;;;16.37;40.24
9462;BME280;4769;42.660;23.262;2023-02-19T10:08:33;94277.81;;;16.57;39.59
9462;BME280;4769;42.660;23.262;2023-02-19T10:11:01;94269.69;;;16.82;38.71
9462;BME280;4769;42.660;23.262;2023-02-19T10:13:32;94257.00;;;17.08;38.48
9462;BME280;4769;42.660;23.262;2023-02-19T10:16:03;94248.00;;;17.42;37.91
9462;BME280;4769;42.660;23.262;2023-02-19T10:18:37;94248.00;;;17.37;37.55
9462;BME280;4769;42.660;23.262;2023-02-19T10:21:05;94240.44;;;17.16;37.70
9462;BME280;4769;42.660;23.262;2023-02-19T10:23:33;94247.19;;;17.03;37.97
9462;BME280;4769;42.660;23.262;2023-02-19T10:26:01;94236.84;;;17.40;37.66
9462;BME280;4769;42.660;23.262;2023-02-19T10:28:29;94234.22;;;17.30;37.42
9462;BME280;4769;42.660;23.262;2023-02-19T10:30:57;94229.47;;;17.22;37.56
9462;BME280;4769;42.660;23.262;2023-02-19T10:33:26;94225.66;;;16.95;37.79
9462;BME280;4769;42.660;23.262;2023-02-19T10:35:56;94221.34;;;17.04;38.29
9462;BME280;4769;42.660;23.262;2023-02-19T10:38:25;94217.84;;;17.08;38.14
9462;BME280;4769;42.660;23.262;2023-02-19T10:41:01;94207.59;;;17.25;37.65
9462;BME280;4769;42.660;23.262;2023-02-19T10:43:31;94195.28;;;17.39;37.56
9462;BME280;4769;42.660;23.262;2023-02-19T10:46:03;94190.16;;;17.43;37.09
9462;BME280;4769;42.660;23.262;2023-02-19T10:48:34;94180.72;;;17.55;37.29
9462;BME280;4769;42.660;23.262;2023-02-19T10:51:06;94171.72;;;17.46;37.07
9462;BME280;4769;42.660;23.262;2023-02-19T10:53:39;94189.25;;;17.52;36.81
9462;BME280;4769;42.660;23.262;2023-02-19T10:56:09;94170.38;;;17.15;37.35
9462;BME280;4769;42.660;23.262;2023-02-19T10:58:37;94155.47;;;17.14;37.31
9462;BME280;4769;42.660;23.262;2023-02-19T11:01:12;94160.75;;;17.53;36.77
9462;BME280;4769;42.660;23.262;2023-02-19T11:03:39;94155.97;;;17.50;36.82
9462;BME280;4769;42.660;23.262;2023-02-19T11:06:08;94148.00;;;17.73;36.65
9462;BME280;4769;42.660;23.262;2023-02-19T11:08:45;94142.84;;;18.05;35.71
9462;BME280;4769;42.660;23.262;2023-02-19T11:11:30;94150.88;;;18.24;35.79
9462;BME280;4769;42.660;23.262;2023-02-19T11:14:00;94139.13;;;18.25;35.01
9462;BME280;4769;42.660;23.262;2023-02-19T11:16:44;94136.16;;;18.08;35.28
9462;BME280;4769;42.660;23.262;2023-02-19T11:19:30;94138.84;;;18.26;34.78
9462;BME280;4769;42.660;23.262;2023-02-19T11:21:59;94127.38;;;18.26;34.71
9462;BME280;4769;42.660;23.262;2023-02-19T11:24:31;94110.38;;;18.40;34.63
9462;BME280;4769;42.660;23.262;2023-02-19T11:27:06;94106.44;;;18.56;33.75
9462;BME280;4769;42.660;23.262;2023-02-19T11:29:33;94112.91;;;18.50;33.63
9462;BME280;4769;42.660;23.262;2023-02-19T11:32:22;94105.47;;;18.66;33.19
9462;BME280;4769;42.660;23.262;2023-02-19T11:35:03;94083.66;;;18.77;33.13
9462;BME280;4769;42.660;23.262;2023-02-19T11:37:52;94086.84;;;19.11;32.67
9462;BME280;4769;42.660;23.262;2023-02-19T11:40:21;94079.44;;;19.22;32.63
9462;BME280;4769;42.660;23.262;2023-02-19T11:42:57;94066.56;;;19.69;30.70
9462;BME280;4769;42.660;23.262;2023-02-19T11:45:35;94071.88;;;19.29;31.23
9462;BME280;4769;42.660;23.262;2023-02-19T11:51:15;94066.66;;;19.91;30.44
9462;BME280;4769;42.660;23.262;2023-02-19T11:53:47;94062.03;;;19.70;30.72
9462;BME280;4769;42.660;23.262;2023-02-19T11:56:18;94072.41;;;19.44;30.58
9462;BME280;4769;42.660;23.262;2023-02-19T11:58:59;94052.28;;;19.60;30.61
9462;BME280;4769;42.660;23.262;2023-02-19T12:01:52;94056.63;;;20.24;29.53
9462;BME280;4769;42.660;23.262;2023-02-19T12:04:40;94054.56;;;20.56;29.27
9462;BME280;4769;42.660;23.262;2023-02-19T12:07:19;94049.00;;;20.31;28.88
9462;BME280;4769;42.660;23.262;2023-02-19T12:10:00;94052.97;;;20.20;29.27
9462;BME280;4769;42.660;23.262;2023-02-19T12:12:37;94038.63;;;20.38;28.52
9462;BME280;4769;42.660;23.262;2023-02-19T12:15:30;94037.47;;;20.88;28.49
9462;BME280;4769;42.660;23.262;2023-02-19T12:21:19;94026.50;;;20.18;28.58
9462;BME280;4769;42.660;23.262;2023-02-19T12:26:46;94011.81;;;20.73;27.58
9462;BME280;4769;42.660;23.262;2023-02-19T12:29:26;94009.88;;;21.40;27.13
9462;BME280;4769;42.660;23.262;2023-02-19T12:32:09;94006.09;;;20.44;27.84
9462;BME280;4769;42.660;23.262;2023-02-19T12:37:49;93988.19;;;21.28;26.99
9462;BME280;4769;42.660;23.262;2023-02-19T12:40:27;93987.44;;;20.83;27.15
9462;BME280;4769;42.660;23.262;2023-02-19T12:43:07;93972.25;;;20.92;27.54
9462;BME280;4769;42.660;23.262;2023-02-19T12:45:40;93979.28;;;20.88;27.28
9462;BME280;4769;42.660;23.262;2023-02-19T12:48:15;93969.31;;;21.33;26.61
9462;BME280;4769;42.660;23.262;2023-02-19T12:50:46;93954.84;;;22.15;25.78
9462;BME280;4769;42.660;23.262;2023-02-19T12:53:24;93941.91;;;23.14;25.66
9462;BME280;4769;42.660;23.262;2023-02-19T12:55:55;93938.34;;;24.47;25.19
9462;BME280;4769;42.660;23.262;2023-02-19T12:58:27;93934.63;;;25.05;24.15
9462;BME280;4769;42.660;23.262;2023-02-19T13:00:56;93933.97;;;25.08;24.02
9462;BME280;4769;42.660;23.262;2023-02-19T13:03:29;93929.00;;;25.54;23.86
9462;BME280;4769;42.660;23.262;2023-02-19T13:06:03;93928.09;;;25.38;24.08
9462;BME280;4769;42.660;23.262;2023-02-19T13:08:36;93926.44;;;25.01;24.46
9462;BME280;4769;42.660;23.262;2023-02-19T13:11:08;93922.25;;;25.48;23.82
9462;BME280;4769;42.660;23.262;2023-02-19T13:13:39;93915.88;;;26.28;23.22
9462;BME280;4769;42.660;23.262;2023-02-19T13:16:11;93910.63;;;26.08;22.07
9462;BME280;4769;42.660;23.262;2023-02-19T13:18:44;93910.31;;;26.49;20.37
9462;BME280;4769;42.660;23.262;2023-02-19T13:21:12;93900.50;;;24.56;22.13
9462;BME280;4769;42.660;23.262;2023-02-19T13:24:02;93894.03;;;23.45;23.38
9462;BME280;4769;42.660;23.262;2023-02-19T13:26:44;93902.19;;;22.74;23.79
9462;BME280;4769;42.660;23.262;2023-02-19T13:29:24;93884.41;;;23.36;23.42
9462;BME280;4769;42.660;23.262;2023-02-19T13:32:15;93889.81;;;24.47;23.25
9462;BME280;4769;42.660;23.262;2023-02-19T13:34:57;93865.31;;;25.77;22.55
9462;BME280;4769;42.660;23.262;2023-02-19T13:37:30;93867.81;;;26.49;21.94
9462;BME280;4769;42.660;23.262;2023-02-19T13:40:03;93874.34;;;26.21;22.45
9462;BME280;4769;42.660;23.262;2023-02-19T13:42:32;93869.47;;;25.75;23.17
9462;BME280;4769;42.660;23.262;2023-02-19T13:45:00;93859.03;;;26.25;22.67
9462;BME280;4769;42.660;23.262;2023-02-19T13:47:49;93877.19;;;24.60;23.77
9462;BME280;4769;42.660;23.262;2023-02-19T13:50:27;93866.28;;;24.56;24.13
9462;BME280;4769;42.660;23.262;2023-02-19T13:52:55;93871.81;;;24.60;23.77
9462;BME280;4769;42.660;23.262;2023-02-19T13:55:48;93868.16;;;24.56;23.90
9462;BME280;4769;42.660;23.262;2023-02-19T13:58:52;93865.00;;;24.21;24.30
9462;BME280;4769;42.660;23.262;2023-02-19T14:04:48;93854.66;;;23.61;25.29